sensor_id;sensor_type;location;lat;lon;timestamp;pressure;altitude;pressure_sealevel;temperature;humidity
61805;BME280;47725;47.912;7.356;2023-08-01T00:03:04;98343.64;;;24.66;44.25
61805;BME280;47725;47.912;7.356;2023-08-01T00:07:04;98337.83;;;24.66;44.31
61805;BME280;47725;47.912;7.356;2023-08-01T00:11:04;98330.74;;;24.66;44.47
61805;BME280;47725;47.912;7.356;2023-08-01T00:15:04;98325.20;;;24.66;44.55
61805;BME280;47725;47.912;7.356;2023-08-01T00:19:04;98322.09;;;24.66;45.72
61805;BME280;47725;47.912;7.356;2023-08-01T00:23:04;98317.86;;;24.65;46.46
61805;BME280;47725;47.912;7.356;2023-08-01T00:27:04;98309.89;;;24.61;46.99
61805;BME280;47725;47.912;7.356;2023-08-01T00:31:04;98304.91;;;24.53;47.92
61805;BME280;47725;47.912;7.356;2023-08-01T00:35:04;98301.65;;;24.44;47.97
61805;BME280;47725;47.912;7.356;2023-08-01T00:39:04;98303.70;;;24.37;47.67
61805;BME280;47725;47.912;7.356;2023-08-01T00:43:04;98305.28;;;24.33;47.62
61805;BME280;47725;47.912;7.356;2023-08-01T00:47:04;98305.30;;;24.30;47.64
61805;BME280;47725;47.912;7.356;2023-08-01T00:51:05;98305.24;;;24.27;47.56
61805;BME280;47725;47.912;7.356;2023-08-01T00:55:04;98301.20;;;24.24;47.65
61805;BME280;47725;47.912;7.356;2023-08-01T00:59:04;98299.26;;;24.22;47.58
61805;BME280;47725;47.912;7.356;2023-08-01T01:03:04;98293.64;;;24.19;47.54
61805;BME280;47725;47.912;7.356;2023-08-01T01:07:05;98287.94;;;24.16;47.69
61805;BME280;47725;47.912;7.356;2023-08-01T01:11:04;98282.76;;;24.14;47.62
61805;BME280;47725;47.912;7.356;2023-08-01T01:15:04;98278.55;;;24.11;47.36
61805;BME280;47725;47.912;7.356;2023-08-01T01:19:06;98274.78;;;24.10;47.11
61805;BME280;47725;47.912;7.356;2023-08-01T01:23:04;98271.47;;;24.09;46.94
61805;BME280;47725;47.912;7.356;2023-08-01T01:27:04;98269.03;;;24.09;46.68
61805;BME280;47725;47.912;7.356;2023-08-01T01:31:04;98266.99;;;24.09;46.46
61805;BME280;47725;47.912;7.356;2023-08-01T01:35:04;98264.17;;;24.09;46.52
61805;BME280;47725;47.912;7.356;2023-08-01T01:39:04;98261.17;;;24.10;46.38
61805;BME280;47725;47.912;7.356;2023-08-01T01:43:04;98259.27;;;24.10;46.44
61805;BME280;47725;47.912;7.356;2023-08-01T01:47:04;98259.80;;;24.11;46.63
61805;BME280;47725;47.912;7.356;2023-08-01T01:51:04;98260.18;;;24.10;46.70
61805;BME280;47725;47.912;7.356;2023-08-01T01:55:04;98261.01;;;24.09;46.85
61805;BME280;47725;47.912;7.356;2023-08-01T01:59:04;98261.67;;;24.09;46.81
61805;BME280;47725;47.912;7.356;2023-08-01T02:03:04;98263.97;;;24.07;46.93
61805;BME280;47725;47.912;7.356;2023-08-01T02:07:04;98264.18;;;24.07;46.83
61805;BME280;47725;47.912;7.356;2023-08-01T02:11:04;98262.45;;;24.06;47.01
61805;BME280;47725;47.912;7.356;2023-08-01T02:15:04;98260.75;;;24.05;47.04
61805;BME280;47725;47.912;7.356;2023-08-01T02:19:04;98259.09;;;24.05;46.90
61805;BME280;47725;47.912;7.356;2023-08-01T02:23:04;98258.54;;;24.06;46.91
61805;BME280;47725;47.912;7.356;2023-08-01T02:27:04;98260.78;;;24.06;46.76
61805;BME280;47725;47.912;7.356;2023-08-01T02:31:04;98262.11;;;24.07;46.71
61805;BME280;47725;47.912;7.356;2023-08-01T02:35:04;98261.39;;;24.08;46.68
61805;BME280;47725;47.912;7.356;2023-08-01T02:39:04;98257.19;;;24.10;46.25
61805;BME280;47725;47.912;7.356;2023-08-01T02:43:04;98257.56;;;24.10;46.60
61805;BME280;47725;47.912;7.356;2023-08-01T02:47:04;98260.80;;;24.11;46.71
61805;BME280;47725;47.912;7.356;2023-08-01T02:51:04;98267.27;;;24.12;46.53
61805;BME280;47725;47.912;7.356;2023-08-01T02:55:04;98271.72;;;24.14;46.70
61805;BME280;47725;47.912;7.356;2023-08-01T02:59:04;98277.31;;;24.16;46.71
61805;BME280;47725;47.912;7.356;2023-08-01T03:03:04;98282.62;;;24.16;46.75
61805;BME280;47725;47.912;7.356;2023-08-01T03:07:04;98289.20;;;24.18;46.64
61805;BME280;47725;47.912;7.356;2023-08-01T03:11:04;98294.67;;;24.20;46.56
61805;BME280;47725;47.912;7.356;2023-08-01T03:15:04;98297.68;;;24.23;46.41
61805;BME280;47725;47.912;7.356;2023-08-01T03:19:04;98301.28;;;24.23;46.44
61805;BME280;47725;47.912;7.356;2023-08-01T03:23:04;98303.60;;;24.24;46.50
61805;BME280;47725;47.912;7.356;2023-08-01T03:27:04;98300.81;;;24.25;46.49
61805;BME280;47725;47.912;7.356;2023-08-01T03:31:04;98292.42;;;24.25;46.75
61805;BME280;47725;47.912;7.356;2023-08-01T03:35:04;98286.17;;;24.23;47.33
61805;BME280;47725;47.912;7.356;2023-08-01T03:39:04;98284.09;;;24.19;47.75
61805;BME280;47725;47.912;7.356;2023-08-01T03:43:04;98279.11;;;24.14;48.16
61805;BME280;47725;47.912;7.356;2023-08-01T03:47:04;98277.00;;;24.08;48.77
61805;BME280;47725;47.912;7.356;2023-08-01T03:51:04;98277.17;;;24.00;49.22
61805;BME280;47725;47.912;7.356;2023-08-01T03:55:04;98271.41;;;23.95;49.41
61805;BME280;47725;47.912;7.356;2023-08-01T03:59:04;98264.23;;;23.88;50.81
61805;BME280;47725;47.912;7.356;2023-08-01T04:03:04;98256.44;;;23.78;51.62
61805;BME280;47725;47.912;7.356;2023-08-01T04:07:04;98240.09;;;23.65;53.25
61805;BME280;47725;47.912;7.356;2023-08-01T04:11:04;98207.39;;;23.51;54.20
61805;BME280;47725;47.912;7.356;2023-08-01T04:15:04;98184.81;;;23.34;55.21
61805;BME280;47725;47.912;7.356;2023-08-01T04:19:04;98174.84;;;23.18;55.50
61805;BME280;47725;47.912;7.356;2023-08-01T04:23:04;98174.08;;;23.03;55.81
61805;BME280;47725;47.912;7.356;2023-08-01T04:27:04;98175.93;;;22.90;56.50
61805;BME280;47725;47.912;7.356;2023-08-01T04:31:04;98186.03;;;22.78;56.75
61805;BME280;47725;47.912;7.356;2023-08-01T04:35:04;98199.16;;;22.67;57.08
61805;BME280;47725;47.912;7.356;2023-08-01T04:39:04;98214.48;;;22.57;58.00
61805;BME280;47725;47.912;7.356;2023-08-01T04:43:04;98218.53;;;22.47;57.75
61805;BME280;47725;47.912;7.356;2023-08-01T04:47:04;98214.03;;;22.38;58.67
61805;BME280;47725;47.912;7.356;2023-08-01T04:51:04;98206.14;;;22.29;59.42
61805;BME280;47725;47.912;7.356;2023-08-01T04:55:04;98194.20;;;22.18;59.79
61805;BME280;47725;47.912;7.356;2023-08-01T04:59:04;98176.87;;;22.08;60.43
61805;BME280;47725;47.912;7.356;2023-08-01T05:03:04;98166.92;;;21.97;60.79
61805;BME280;47725;47.912;7.356;2023-08-01T05:07:04;98160.06;;;21.91;60.12
61805;BME280;47725;47.912;7.356;2023-08-01T05:11:04;98154.68;;;21.84;60.77
61805;BME280;47725;47.912;7.356;2023-08-01T05:15:04;98154.19;;;21.78;60.38
61805;BME280;47725;47.912;7.356;2023-08-01T05:19:04;98157.83;;;21.70;60.59
61805;BME280;47725;47.912;7.356;2023-08-01T05:23:04;98158.36;;;21.62;60.59
61805;BME280;47725;47.912;7.356;2023-08-01T05:27:04;98160.33;;;21.56;60.71
61805;BME280;47725;47.912;7.356;2023-08-01T05:31:04;98160.91;;;21.52;60.54
61805;BME280;47725;47.912;7.356;2023-08-01T05:35:04;98163.34;;;21.49;60.53
61805;BME280;47725;47.912;7.356;2023-08-01T05:39:03;98167.30;;;21.46;60.79
61805;BME280;47725;47.912;7.356;2023-08-01T05:43:03;98174.83;;;21.43;60.91
61805;BME280;47725;47.912;7.356;2023-08-01T05:47:04;98182.95;;;21.38;61.46
61805;BME280;47725;47.912;7.356;2023-08-01T05:51:03;98188.76;;;21.31;62.07
61805;BME280;47725;47.912;7.356;2023-08-01T05:55:04;98191.02;;;21.26;61.86
61805;BME280;47725;47.912;7.356;2023-08-01T05:59:03;98182.09;;;21.24;61.50
61805;BME280;47725;47.912;7.356;2023-08-01T06:03:03;98172.25;;;21.20;61.94
61805;BME280;47725;47.912;7.356;2023-08-01T06:07:04;98164.26;;;21.13;62.57
61805;BME280;47725;47.912;7.356;2023-08-01T06:11:03;98160.11;;;21.06;62.94
61805;BME280;47725;47.912;7.356;2023-08-01T06:15:04;98155.50;;;20.98;63.22
61805;BME280;47725;47.912;7.356;2023-08-01T06:19:03;98149.30;;;20.92;63.15
61805;BME280;47725;47.912;7.356;2023-08-01T06:23:03;98139.62;;;20.87;63.42
61805;BME280;47725;47.912;7.356;2023-08-01T06:27:04;98140.84;;;20.83;63.75
61805;BME280;47725;47.912;7.356;2023-08-01T06:31:03;98149.00;;;20.80;63.68
61805;BME280;47725;47.912;7.356;2023-08-01T06:35:04;98157.08;;;20.77;63.72
61805;BME280;47725;47.912;7.356;2023-08-01T06:39:03;98162.97;;;20.75;63.61
61805;BME280;47725;47.912;7.356;2023-08-01T06:43:03;98165.69;;;20.73;64.16
61805;BME280;47725;47.912;7.356;2023-08-01T06:47:04;98165.80;;;20.70;64.43
61805;BME280;47725;47.912;7.356;2023-08-01T06:51:04;98167.07;;;20.69;65.18
61805;BME280;47725;47.912;7.356;2023-08-01T06:55:04;98169.67;;;20.68;65.00
61805;BME280;47725;47.912;7.356;2023-08-01T06:59:03;98173.14;;;20.68;64.74
61805;BME280;47725;47.912;7.356;2023-08-01T07:03:03;98175.51;;;20.67;65.32
61805;BME280;47725;47.912;7.356;2023-08-01T07:07:03;98178.66;;;20.67;64.86
61805;BME280;47725;47.912;7.356;2023-08-01T07:11:03;98181.59;;;20.69;64.74
61805;BME280;47725;47.912;7.356;2023-08-01T07:15:04;98182.50;;;20.69;64.81
61805;BME280;47725;47.912;7.356;2023-08-01T07:19:03;98183.20;;;20.68;65.18
61805;BME280;47725;47.912;7.356;2023-08-01T07:23:03;98177.58;;;20.67;65.10
61805;BME280;47725;47.912;7.356;2023-08-01T07:27:04;98171.64;;;20.67;65.15
61805;BME280;47725;47.912;7.356;2023-08-01T07:31:04;98168.71;;;20.66;65.29
61805;BME280;47725;47.912;7.356;2023-08-01T07:35:04;98167.50;;;20.63;65.59
61805;BME280;47725;47.912;7.356;2023-08-01T07:39:03;98163.49;;;20.61;65.38
61805;BME280;47725;47.912;7.356;2023-08-01T07:43:03;98163.44;;;20.59;65.86
61805;BME280;47725;47.912;7.356;2023-08-01T07:47:04;98162.81;;;20.58;65.64
61805;BME280;47725;47.912;7.356;2023-08-01T07:51:03;98161.81;;;20.55;66.67
61805;BME280;47725;47.912;7.356;2023-08-01T07:55:04;98160.28;;;20.54;66.38
61805;BME280;47725;47.912;7.356;2023-08-01T07:59:03;98157.79;;;20.54;66.34
61805;BME280;47725;47.912;7.356;2023-08-01T08:03:04;98153.47;;;20.55;66.37
61805;BME280;47725;47.912;7.356;2023-08-01T08:07:04;98148.58;;;20.58;66.96
61805;BME280;47725;47.912;7.356;2023-08-01T08:11:03;98145.95;;;20.59;67.04
61805;BME280;47725;47.912;7.356;2023-08-01T08:15:04;98144.76;;;20.62;67.13
61805;BME280;47725;47.912;7.356;2023-08-01T08:19:03;98139.62;;;20.63;67.36
61805;BME280;47725;47.912;7.356;2023-08-01T08:23:03;98136.94;;;20.66;67.58
61805;BME280;47725;47.912;7.356;2023-08-01T08:27:04;98135.55;;;20.69;67.22
61805;BME280;47725;47.912;7.356;2023-08-01T08:31:03;98134.44;;;20.71;67.43
61805;BME280;47725;47.912;7.356;2023-08-01T08:35:04;98134.50;;;20.76;67.23
61805;BME280;47725;47.912;7.356;2023-08-01T08:39:03;98134.52;;;20.82;67.45
61805;BME280;47725;47.912;7.356;2023-08-01T08:43:03;98134.92;;;20.92;67.94
61805;BME280;47725;47.912;7.356;2023-08-01T08:47:04;98136.21;;;21.05;67.15
61805;BME280;47725;47.912;7.356;2023-08-01T08:51:03;98137.81;;;21.17;66.34
61805;BME280;47725;47.912;7.356;2023-08-01T08:55:04;98138.53;;;21.27;66.02
61805;BME280;47725;47.912;7.356;2023-08-01T08:59:03;98137.95;;;21.33;66.34
61805;BME280;47725;47.912;7.356;2023-08-01T09:03:04;98137.55;;;21.39;65.84
61805;BME280;47725;47.912;7.356;2023-08-01T09:07:06;98136.99;;;21.47;65.61
61805;BME280;47725;47.912;7.356;2023-08-01T09:11:03;98133.11;;;21.55;65.28
61805;BME280;47725;47.912;7.356;2023-08-01T09:15:04;98130.80;;;21.63;64.83
61805;BME280;47725;47.912;7.356;2023-08-01T09:19:05;98129.35;;;21.71;64.84
61805;BME280;47725;47.912;7.356;2023-08-01T09:23:07;98130.45;;;21.78;64.17
61805;BME280;47725;47.912;7.356;2023-08-01T09:27:04;98133.31;;;21.84;64.30
61805;BME280;47725;47.912;7.356;2023-08-01T09:31:03;98136.83;;;21.88;63.43
61805;BME280;47725;47.912;7.356;2023-08-01T09:35:04;98144.67;;;21.93;63.11
61805;BME280;47725;47.912;7.356;2023-08-01T09:39:03;98154.22;;;21.99;62.89
61805;BME280;47725;47.912;7.356;2023-08-01T09:43:03;98157.65;;;22.03;62.53
61805;BME280;47725;47.912;7.356;2023-08-01T09:47:04;98162.73;;;22.07;62.36
61805;BME280;47725;47.912;7.356;2023-08-01T09:51:13;98166.13;;;22.15;62.04
61805;BME280;47725;47.912;7.356;2023-08-01T09:55:04;98169.41;;;22.26;61.61
61805;BME280;47725;47.912;7.356;2023-08-01T09:59:03;98173.32;;;22.38;60.94
61805;BME280;47725;47.912;7.356;2023-08-01T10:03:03;98180.33;;;22.48;60.38
61805;BME280;47725;47.912;7.356;2023-08-01T10:07:05;98187.55;;;22.56;60.58
61805;BME280;47725;47.912;7.356;2023-08-01T10:11:04;98193.74;;;22.62;61.10
61805;BME280;47725;47.912;7.356;2023-08-01T10:15:04;98200.01;;;22.70;60.94
61805;BME280;47725;47.912;7.356;2023-08-01T10:19:04;98203.05;;;22.78;60.83
61805;BME280;47725;47.912;7.356;2023-08-01T10:23:03;98203.27;;;22.87;60.65
61805;BME280;47725;47.912;7.356;2023-08-01T10:31:13;98206.83;;;23.26;59.85
61805;BME280;47725;47.912;7.356;2023-08-01T10:35:04;98211.00;;;23.49;58.45
61805;BME280;47725;47.912;7.356;2023-08-01T10:39:03;98216.14;;;23.70;57.62
61805;BME280;47725;47.912;7.356;2023-08-01T10:43:03;98219.72;;;23.85;56.62
61805;BME280;47725;47.912;7.356;2023-08-01T10:47:04;98223.05;;;23.94;56.79
61805;BME280;47725;47.912;7.356;2023-08-01T10:51:03;98226.15;;;24.00;56.96
61805;BME280;47725;47.912;7.356;2023-08-01T10:55:04;98225.95;;;24.04;56.99
61805;BME280;47725;47.912;7.356;2023-08-01T10:59:04;98225.60;;;24.06;57.32
61805;BME280;47725;47.912;7.356;2023-08-01T11:03:03;98224.08;;;24.10;56.40
61805;BME280;47725;47.912;7.356;2023-08-01T11:07:04;98222.65;;;24.13;56.69
61805;BME280;47725;47.912;7.356;2023-08-01T11:11:07;98220.50;;;24.17;56.15
61805;BME280;47725;47.912;7.356;2023-08-01T11:15:04;98220.63;;;24.21;55.70
61805;BME280;47725;47.912;7.356;2023-08-01T11:19:03;98220.15;;;24.23;55.56
61805;BME280;47725;47.912;7.356;2023-08-01T11:23:03;98220.86;;;24.24;56.01
61805;BME280;47725;47.912;7.356;2023-08-01T11:27:04;98222.52;;;24.23;55.91
61805;BME280;47725;47.912;7.356;2023-08-01T11:31:12;98223.27;;;24.23;56.64
61805;BME280;47725;47.912;7.356;2023-08-01T11:35:03;98224.17;;;24.23;56.28
61805;BME280;47725;47.912;7.356;2023-08-01T11:39:03;98223.74;;;24.21;56.86
61805;BME280;47725;47.912;7.356;2023-08-01T11:43:03;98222.16;;;24.22;56.21
61805;BME280;47725;47.912;7.356;2023-08-01T11:47:09;98220.11;;;24.28;56.24
61805;BME280;47725;47.912;7.356;2023-08-01T11:51:03;98220.19;;;24.38;55.26
61805;BME280;47725;47.912;7.356;2023-08-01T11:55:03;98217.72;;;24.48;54.68
61805;BME280;47725;47.912;7.356;2023-08-01T11:59:13;98217.27;;;24.58;54.31
61805;BME280;47725;47.912;7.356;2023-08-01T12:03:04;98216.67;;;24.72;53.76
61805;BME280;47725;47.912;7.356;2023-08-01T12:07:11;98215.80;;;24.87;52.29
61805;BME280;47725;47.912;7.356;2023-08-01T12:11:03;98213.13;;;25.02;52.43
61805;BME280;47725;47.912;7.356;2023-08-01T12:15:03;98212.20;;;25.23;50.96
61805;BME280;47725;47.912;7.356;2023-08-01T12:19:03;98212.77;;;25.45;50.71
61805;BME280;47725;47.912;7.356;2023-08-01T12:23:03;98216.05;;;25.68;50.20
61805;BME280;47725;47.912;7.356;2023-08-01T12:27:09;98217.42;;;25.93;49.34
61805;BME280;47725;47.912;7.356;2023-08-01T12:31:03;98216.74;;;26.19;47.81
61805;BME280;47725;47.912;7.356;2023-08-01T12:35:03;98219.90;;;26.46;47.59
61805;BME280;47725;47.912;7.356;2023-08-01T12:39:03;98224.08;;;26.72;46.46
61805;BME280;47725;47.912;7.356;2023-08-01T12:43:03;98228.86;;;26.96;45.94
61805;BME280;47725;47.912;7.356;2023-08-01T12:47:03;98230.14;;;27.12;45.00
61805;BME280;47725;47.912;7.356;2023-08-01T12:51:03;98232.37;;;27.23;45.28
61805;BME280;47725;47.912;7.356;2023-08-01T12:55:03;98234.74;;;27.30;44.91
61805;BME280;47725;47.912;7.356;2023-08-01T12:59:03;98237.30;;;27.34;46.17
61805;BME280;47725;47.912;7.356;2023-08-01T13:03:03;98242.07;;;27.37;45.71
61805;BME280;47725;47.912;7.356;2023-08-01T13:07:04;98245.92;;;27.39;45.99
61805;BME280;47725;47.912;7.356;2023-08-01T13:11:09;98249.27;;;27.43;45.41
61805;BME280;47725;47.912;7.356;2023-08-01T13:15:03;98250.27;;;27.41;46.04
61805;BME280;47725;47.912;7.356;2023-08-01T13:19:03;98252.51;;;27.37;45.75
61805;BME280;47725;47.912;7.356;2023-08-01T13:23:03;98252.52;;;27.39;44.87
61805;BME280;47725;47.912;7.356;2023-08-01T13:27:03;98254.13;;;27.48;43.37
61805;BME280;47725;47.912;7.356;2023-08-01T13:31:03;98255.45;;;27.60;43.24
61805;BME280;47725;47.912;7.356;2023-08-01T13:35:03;98259.29;;;27.71;41.70
61805;BME280;47725;47.912;7.356;2023-08-01T13:39:03;98261.65;;;27.79;41.56
61805;BME280;47725;47.912;7.356;2023-08-01T13:43:03;98264.26;;;27.87;41.38
61805;BME280;47725;47.912;7.356;2023-08-01T13:47:03;98265.93;;;27.96;41.19
61805;BME280;47725;47.912;7.356;2023-08-01T13:51:03;98267.96;;;28.05;40.52
61805;BME280;47725;47.912;7.356;2023-08-01T13:55:03;98267.56;;;28.15;39.16
61805;BME280;47725;47.912;7.356;2023-08-01T13:59:03;98267.92;;;28.26;39.12
61805;BME280;47725;47.912;7.356;2023-08-01T14:03:03;98267.70;;;28.37;38.47
61805;BME280;47725;47.912;7.356;2023-08-01T14:07:03;98266.66;;;28.48;36.27
61805;BME280;47725;47.912;7.356;2023-08-01T14:11:04;98266.32;;;28.58;37.80
61805;BME280;47725;47.912;7.356;2023-08-01T14:15:03;98265.69;;;28.69;37.96
61805;BME280;47725;47.912;7.356;2023-08-01T14:19:03;98264.97;;;28.82;37.73
61805;BME280;47725;47.912;7.356;2023-08-01T14:23:03;98265.80;;;28.94;37.15
61805;BME280;47725;47.912;7.356;2023-08-01T14:27:03;98266.03;;;29.06;36.92
61805;BME280;47725;47.912;7.356;2023-08-01T14:31:03;98266.35;;;29.15;37.11
61805;BME280;47725;47.912;7.356;2023-08-01T14:35:03;98265.80;;;29.23;36.03
61805;BME280;47725;47.912;7.356;2023-08-01T14:39:03;98267.78;;;29.28;36.85
61805;BME280;47725;47.912;7.356;2023-08-01T14:43:03;98268.64;;;29.30;34.91
61805;BME280;47725;47.912;7.356;2023-08-01T14:47:03;98271.58;;;29.28;36.60
61805;BME280;47725;47.912;7.356;2023-08-01T14:51:06;98273.41;;;29.27;35.21
61805;BME280;47725;47.912;7.356;2023-08-01T14:55:03;98275.08;;;29.23;35.56
61805;BME280;47725;47.912;7.356;2023-08-01T14:59:03;98276.65;;;29.19;36.10
61805;BME280;47725;47.912;7.356;2023-08-01T15:03:03;98276.58;;;29.19;35.75
61805;BME280;47725;47.912;7.356;2023-08-01T15:07:03;98278.75;;;29.17;36.21
61805;BME280;47725;47.912;7.356;2023-08-01T15:11:06;98282.34;;;29.16;36.14
61805;BME280;47725;47.912;7.356;2023-08-01T15:15:04;98286.02;;;29.13;35.96
61805;BME280;47725;47.912;7.356;2023-08-01T15:19:03;98289.54;;;29.10;36.29
61805;BME280;47725;47.912;7.356;2023-08-01T15:23:03;98293.46;;;29.06;36.08
61805;BME280;47725;47.912;7.356;2023-08-01T15:27:03;98298.99;;;29.01;36.24
61805;BME280;47725;47.912;7.356;2023-08-01T15:31:04;98303.08;;;28.96;35.99
61805;BME280;47725;47.912;7.356;2023-08-01T15:35:03;98305.49;;;28.94;35.78
61805;BME280;47725;47.912;7.356;2023-08-01T15:39:03;98308.50;;;28.94;36.07
61805;BME280;47725;47.912;7.356;2023-08-01T15:43:03;98310.52;;;28.95;35.29
61805;BME280;47725;47.912;7.356;2023-08-01T15:47:03;98313.69;;;28.94;35.46
61805;BME280;47725;47.912;7.356;2023-08-01T15:51:04;98317.46;;;28.89;35.17
61805;BME280;47725;47.912;7.356;2023-08-01T15:55:03;98321.63;;;28.83;35.51
61805;BME280;47725;47.912;7.356;2023-08-01T15:59:03;98323.97;;;28.76;35.46
61805;BME280;47725;47.912;7.356;2023-08-01T16:03:03;98325.63;;;28.72;35.56
61805;BME280;47725;47.912;7.356;2023-08-01T16:07:03;98329.65;;;28.68;35.74
61805;BME280;47725;47.912;7.356;2023-08-01T16:11:03;98334.33;;;28.65;35.87
61805;BME280;47725;47.912;7.356;2023-08-01T16:15:03;98337.81;;;28.63;35.48
61805;BME280;47725;47.912;7.356;2023-08-01T16:19:03;98339.98;;;28.59;35.36
61805;BME280;47725;47.912;7.356;2023-08-01T16:23:03;98343.03;;;28.55;35.20
61805;BME280;47725;47.912;7.356;2023-08-01T16:27:03;98345.84;;;28.51;35.00
61805;BME280;47725;47.912;7.356;2023-08-01T16:31:03;98348.60;;;28.46;35.36
61805;BME280;47725;47.912;7.356;2023-08-01T16:35:03;98351.59;;;28.41;35.36
61805;BME280;47725;47.912;7.356;2023-08-01T16:39:05;98355.67;;;28.36;35.34
61805;BME280;47725;47.912;7.356;2023-08-01T16:43:03;98358.23;;;28.28;35.25
61805;BME280;47725;47.912;7.356;2023-08-01T16:47:03;98365.03;;;28.17;35.19
61805;BME280;47725;47.912;7.356;2023-08-01T16:51:03;98372.22;;;28.03;35.57
61805;BME280;47725;47.912;7.356;2023-08-01T16:55:03;98379.24;;;27.89;35.96
61805;BME280;47725;47.912;7.356;2023-08-01T16:59:03;98384.52;;;27.79;35.90
61805;BME280;47725;47.912;7.356;2023-08-01T17:03:03;98387.30;;;27.71;35.46
61805;BME280;47725;47.912;7.356;2023-08-01T17:07:03;98389.14;;;27.63;35.85
61805;BME280;47725;47.912;7.356;2023-08-01T17:11:05;98391.35;;;27.55;35.81
61805;BME280;47725;47.912;7.356;2023-08-01T17:15:03;98394.37;;;27.47;35.85
61805;BME280;47725;47.912;7.356;2023-08-01T17:19:03;98398.19;;;27.35;35.71
61805;BME280;47725;47.912;7.356;2023-08-01T17:23:03;98402.33;;;27.23;35.63
61805;BME280;47725;47.912;7.356;2023-08-01T17:27:03;98406.39;;;27.11;35.48
61805;BME280;47725;47.912;7.356;2023-08-01T17:31:03;98412.02;;;26.99;35.89
61805;BME280;47725;47.912;7.356;2023-08-01T17:35:03;98417.50;;;26.90;35.40
61805;BME280;47725;47.912;7.356;2023-08-01T17:39:03;98420.46;;;26.78;35.91
61805;BME280;47725;47.912;7.356;2023-08-01T17:43:03;98421.34;;;26.67;35.94
61805;BME280;47725;47.912;7.356;2023-08-01T17:47:03;98422.69;;;26.58;35.54
61805;BME280;47725;47.912;7.356;2023-08-01T17:51:03;98424.90;;;26.47;36.00
61805;BME280;47725;47.912;7.356;2023-08-01T17:55:03;98427.51;;;26.36;36.32
61805;BME280;47725;47.912;7.356;2023-08-01T17:59:03;98430.55;;;26.27;36.41
61805;BME280;47725;47.912;7.356;2023-08-01T18:03:03;98433.62;;;26.19;36.45
61805;BME280;47725;47.912;7.356;2023-08-01T18:07:03;98437.84;;;26.11;36.67
61805;BME280;47725;47.912;7.356;2023-08-01T18:11:06;98440.89;;;26.04;36.77
61805;BME280;47725;47.912;7.356;2023-08-01T18:15:03;98445.97;;;25.98;36.93
61805;BME280;47725;47.912;7.356;2023-08-01T18:19:03;98450.70;;;25.93;37.22
61805;BME280;47725;47.912;7.356;2023-08-01T18:23:04;98455.02;;;25.87;37.15
61805;BME280;47725;47.912;7.356;2023-08-01T18:27:03;98460.08;;;25.80;36.83
61805;BME280;47725;47.912;7.356;2023-08-01T18:31:09;98466.69;;;25.74;37.06
61805;BME280;47725;47.912;7.356;2023-08-01T18:35:03;98470.56;;;25.66;37.17
61805;BME280;47725;47.912;7.356;2023-08-01T18:39:03;98476.59;;;25.58;37.39
61805;BME280;47725;47.912;7.356;2023-08-01T18:43:03;98481.14;;;25.51;37.63
61805;BME280;47725;47.912;7.356;2023-08-01T18:47:03;98486.11;;;25.46;37.79
61805;BME280;47725;47.912;7.356;2023-08-01T18:55:03;98495.31;;;25.30;37.95
61805;BME280;47725;47.912;7.356;2023-08-01T18:59:03;98498.97;;;25.21;38.02
61805;BME280;47725;47.912;7.356;2023-08-01T19:03:03;98502.40;;;25.14;38.19
61805;BME280;47725;47.912;7.356;2023-08-01T19:07:03;98504.77;;;25.08;38.33
61805;BME280;47725;47.912;7.356;2023-08-01T19:11:03;98505.24;;;25.02;38.50
61805;BME280;47725;47.912;7.356;2023-08-01T19:15:03;98506.14;;;24.98;38.43
61805;BME280;47725;47.912;7.356;2023-08-01T19:19:03;98507.08;;;24.94;38.61
61805;BME280;47725;47.912;7.356;2023-08-01T19:23:03;98509.37;;;24.88;39.04
61805;BME280;47725;47.912;7.356;2023-08-01T19:27:03;98510.91;;;24.81;39.24
61805;BME280;47725;47.912;7.356;2023-08-01T19:31:03;98513.69;;;24.77;39.33
61805;BME280;47725;47.912;7.356;2023-08-01T19:35:03;98517.03;;;24.73;39.46
61805;BME280;47725;47.912;7.356;2023-08-01T19:39:03;98519.72;;;24.67;39.74
61805;BME280;47725;47.912;7.356;2023-08-01T19:43:03;98522.94;;;24.61;40.00
61805;BME280;47725;47.912;7.356;2023-08-01T19:47:03;98525.85;;;24.57;40.02
61805;BME280;47725;47.912;7.356;2023-08-01T19:51:03;98528.58;;;24.51;40.62
61805;BME280;47725;47.912;7.356;2023-08-01T19:55:03;98530.69;;;24.45;41.00
61805;BME280;47725;47.912;7.356;2023-08-01T19:59:03;98532.95;;;24.39;41.40
61805;BME280;47725;47.912;7.356;2023-08-01T20:03:03;98535.60;;;24.34;41.38
61805;BME280;47725;47.912;7.356;2023-08-01T20:07:03;98536.47;;;24.29;41.75
61805;BME280;47725;47.912;7.356;2023-08-01T20:11:03;98536.42;;;24.24;42.18
61805;BME280;47725;47.912;7.356;2023-08-01T20:15:03;98536.61;;;24.17;42.98
61805;BME280;47725;47.912;7.356;2023-08-01T20:19:03;98535.89;;;24.08;43.19
61805;BME280;47725;47.912;7.356;2023-08-01T20:23:03;98535.47;;;23.97;43.76
61805;BME280;47725;47.912;7.356;2023-08-01T20:27:03;98535.05;;;23.87;44.44
61805;BME280;47725;47.912;7.356;2023-08-01T20:31:03;98535.19;;;23.78;44.53
61805;BME280;47725;47.912;7.356;2023-08-01T20:35:03;98535.58;;;23.70;44.79
61805;BME280;47725;47.912;7.356;2023-08-01T20:39:03;98538.16;;;23.63;45.10
61805;BME280;47725;47.912;7.356;2023-08-01T20:43:03;98541.69;;;23.56;45.29
61805;BME280;47725;47.912;7.356;2023-08-01T20:47:03;98546.72;;;23.49;45.60
61805;BME280;47725;47.912;7.356;2023-08-01T20:51:03;98549.38;;;23.42;45.63
61805;BME280;47725;47.912;7.356;2023-08-01T20:55:03;98551.15;;;23.35;45.74
61805;BME280;47725;47.912;7.356;2023-08-01T20:59:03;98552.48;;;23.28;45.98
61805;BME280;47725;47.912;7.356;2023-08-01T21:03:03;98551.56;;;23.22;45.97
61805;BME280;47725;47.912;7.356;2023-08-01T21:07:03;98549.70;;;23.18;45.85
61805;BME280;47725;47.912;7.356;2023-08-01T21:11:08;98547.71;;;23.14;46.07
61805;BME280;47725;47.912;7.356;2023-08-01T21:15:03;98547.45;;;23.09;46.41
61805;BME280;47725;47.912;7.356;2023-08-01T21:19:03;98547.83;;;23.04;46.26